Time;durP1;ratioP1;P1;durP2;ratioP2;P2;SDS_P1;SDS_P2;PMS_P1;PMS_P2;Temp;Humidity;BMP_temperature;BMP_pressure;BME280_temperature;BME280_humidity;BME280_pressure;Samples;Min_cycle;Max_cycle;Signal;HPM_P1;HPM_P2
2024/01/06 00:02:13;;;;;;;5.40;4.50;;;0.60;99.90;;;;;;4988108;28;20945;-72
2024/01/06 00:04:41;;;;;;;6.10;5.00;;;0.60;99.90;;;;;;4986690;28;20479;-72
2024/01/06 00:07:09;;;;;;;5.77;5.17;;;0.60;99.90;;;;;;4991805;28;20489;-72
2024/01/06 00:09:37;;;;;;;5.00;4.50;;;0.60;99.90;;;;;;4986749;28;20562;-73
2024/01/06 00:12:07;;;;;;;5.37;4.40;;;0.60;99.90;;;;;;4990411;28;20507;-72
2024/01/06 00:14:35;;;;;;;7.10;5.00;;;0.60;99.90;;;;;;4990127;28;20504;-72
2024/01/06 00:17:03;;;;;;;5.70;4.70;;;0.60;99.90;;;;;;4990333;28;20465;-72
2024/01/06 00:19:31;;;;;;;6.67;4.60;;;0.60;99.90;;;;;;4981511;28;20596;-72
2024/01/06 00:22:00;;;;;;;5.97;4.90;;;0.50;99.90;;;;;;4991820;28;20507;-72
2024/01/06 00:24:28;;;;;;;7.40;5.33;;;0.60;99.90;;;;;;4991643;28;20520;-72
2024/01/06 00:26:56;;;;;;;5.57;5.03;;;0.50;99.90;;;;;;4987056;28;20497;-72
2024/01/06 00:29:26;;;;;;;5.20;4.30;;;0.50;99.90;;;;;;4982862;28;20865;-72
2024/01/06 00:31:54;;;;;;;5.73;5.13;;;0.50;99.90;;;;;;4987370;28;20486;-70
2024/01/06 00:34:22;;;;;;;5.80;5.00;;;0.50;99.90;;;;;;4991488;28;21034;-70
2024/01/06 00:36:50;;;;;;;5.80;4.93;;;0.50;99.90;;;;;;4993683;28;20473;-70
2024/01/06 00:39:18;;;;;;;5.73;4.80;;;0.60;99.90;;;;;;4987570;28;20473;-71
2024/01/06 00:41:46;;;;;;;4.70;4.30;;;0.60;99.90;;;;;;4991941;28;20488;-72
2024/01/06 00:44:14;;;;;;;6.63;5.50;;;0.60;99.90;;;;;;4991039;28;20537;-72
2024/01/06 00:46:43;;;;;;;6.90;5.03;;;0.50;99.90;;;;;;4990612;28;20893;-70
2024/01/06 00:49:11;;;;;;;5.77;4.80;;;0.60;99.90;;;;;;4986370;28;20468;-71
2024/01/06 00:51:40;;;;;;;6.10;5.03;;;0.60;99.90;;;;;;4980537;28;20497;-70
2024/01/06 00:54:08;;;;;;;5.50;4.90;;;0.60;99.90;;;;;;4979990;28;20714;-71
2024/01/06 00:56:36;;;;;;;6.80;5.50;;;0.60;99.90;;;;;;4987332;28;20523;-70
2024/01/06 00:59:04;;;;;;;5.60;5.10;;;0.50;99.90;;;;;;4989211;28;20466;-70
2024/01/06 01:01:32;;;;;;;5.43;4.87;;;0.50;99.90;;;;;;4987885;28;20485;-70
2024/01/06 01:04:02;;;;;;;5.10;4.60;;;0.60;99.90;;;;;;4990651;28;20529;-70
2024/01/06 01:06:30;;;;;;;6.77;5.40;;;0.60;99.90;;;;;;4987723;28;21075;-72
2024/01/06 01:08:58;;;;;;;5.57;4.50;;;0.50;99.90;;;;;;4986966;28;20556;-70
2024/01/06 01:11:26;;;;;;;6.00;5.23;;;0.50;99.90;;;;;;4990106;28;20998;-70
2024/01/06 01:13:54;;;;;;;7.17;5.50;;;0.50;99.90;;;;;;4987323;28;20561;-70
2024/01/06 01:16:22;;;;;;;5.47;4.80;;;0.50;99.90;;;;;;4990152;28;20476;-70
2024/01/06 01:18:50;;;;;;;5.97;5.20;;;0.50;99.90;;;;;;4985282;28;20512;-70
2024/01/06 01:21:20;;;;;;;5.47;4.70;;;0.50;99.90;;;;;;4987999;28;20485;-69
2024/01/06 01:23:48;;;;;;;5.53;5.03;;;0.50;99.90;;;;;;4984080;28;20505;-70
2024/01/06 01:26:16;;;;;;;6.43;5.23;;;0.50;99.90;;;;;;4988559;28;20564;-71
2024/01/06 01:28:44;;;;;;;5.70;4.80;;;0.50;99.90;;;;;;4992048;28;20465;-72
2024/01/06 01:31:13;;;;;;;5.60;4.70;;;0.60;99.90;;;;;;4987920;28;20524;-74
2024/01/06 01:33:41;;;;;;;5.67;5.07;;;0.60;99.90;;;;;;4993429;28;20901;-72
2024/01/06 01:36:10;;;;;;;6.73;5.30;;;0.60;99.90;;;;;;4996606;28;20487;-72
2024/01/06 01:38:39;;;;;;;6.77;4.70;;;0.60;99.90;;;;;;4988934;28;20504;-72
2024/01/06 01:41:07;;;;;;;5.43;4.87;;;0.60;99.90;;;;;;5019609;23;20566;-63
2024/01/06 01:43:35;;;;;;;6.90;5.27;;;0.50;99.90;;;;;;5018301;28;20570;-64
2024/01/06 01:46:03;;;;;;;8.40;5.80;;;0.50;99.90;;;;;;5015423;28;20502;-63
2024/01/06 01:48:34;;;;;;;6.63;5.57;;;0.50;99.90;;;;;;5009878;28;20494;-63
2024/01/06 01:51:03;;;;;;;5.40;4.90;;;0.60;99.90;;;;;;5009582;28;20539;-62
2024/01/06 01:53:32;;;;;;;6.30;4.90;;;0.60;99.90;;;;;;5006581;28;20503;-64
2024/01/06 01:56:04;;;;;;;6.70;5.57;;;0.50;99.90;;;;;;5011342;28;20995;-64
2024/01/06 01:58:32;;;;;;;5.57;5.00;;;0.50;99.90;;;;;;5007781;28;20467;-63
2024/01/06 02:01:00;;;;;;;6.23;5.20;;;0.50;99.90;;;;;;5006184;28;20492;-65
2024/01/06 02:03:30;;;;;;;6.10;5.50;;;0.50;99.90;;;;;;5007976;28;21044;-64
2024/01/06 02:05:59;;;;;;;6.30;5.50;;;0.50;99.90;;;;;;5011145;28;20483;-64
2024/01/06 02:08:27;;;;;;;6.47;5.77;;;0.50;99.90;;;;;;5012966;28;20595;-63
2024/01/06 02:10:56;;;;;;;6.10;5.50;;;0.50;99.90;;;;;;5006317;28;20588;-62
2024/01/06 02:13:33;;;;;;;5.20;4.40;;;0.50;99.90;;;;;;5009066;28;20481;-63
2024/01/06 02:16:01;;;;;;;6.13;5.13;;;0.50;99.90;;;;;;5012904;28;20495;-63
2024/01/06 02:18:29;;;;;;;5.73;5.13;;;0.50;99.90;;;;;;5009801;28;20522;-63
2024/01/06 02:21:00;;;;;;;5.93;5.33;;;0.50;99.90;;;;;;5009461;28;20569;-63
2024/01/06 02:23:30;;;;;;;6.67;5.93;;;0.50;99.90;;;;;;5009424;28;20468;-63
2024/01/06 02:25:58;;;;;;;6.97;5.93;;;0.50;99.90;;;;;;5003817;28;20471;-63
2024/01/06 02:28:26;;;;;;;7.23;5.90;;;0.50;99.90;;;;;;5010211;28;20615;-63
2024/01/06 02:30:54;;;;;;;7.17;6.07;;;0.50;99.90;;;;;;5011561;28;20508;-63
2024/01/06 02:33:24;;;;;;;7.17;6.30;;;0.50;99.90;;;;;;5007183;28;20480;-63
2024/01/06 02:35:52;;;;;;;6.70;5.40;;;0.50;99.90;;;;;;5007973;28;20479;-63
2024/01/06 02:38:20;;;;;;;7.37;5.70;;;0.40;99.90;;;;;;5011378;28;20547;-63
2024/01/06 02:40:49;;;;;;;6.73;5.83;;;0.40;99.90;;;;;;5008675;28;20567;-61
2024/01/06 02:43:17;;;;;;;8.30;5.83;;;0.50;99.90;;;;;;5004475;28;20549;-63
2024/01/06 02:45:46;;;;;;;8.70;6.70;;;0.50;99.90;;;;;;5005265;28;20487;-63
2024/01/06 02:48:15;;;;;;;8.20;6.40;;;0.50;99.90;;;;;;5002870;28;20510;-63
2024/01/06 02:50:43;;;;;;;6.50;5.80;;;0.50;99.90;;;;;;5003750;28;21015;-63
2024/01/06 02:53:12;;;;;;;7.80;5.93;;;0.50;99.90;;;;;;5004368;28;20554;-63
2024/01/06 02:55:40;;;;;;;7.60;6.33;;;0.40;99.90;;;;;;5006230;28;20480;-62
2024/01/06 02:58:09;;;;;;;8.80;6.47;;;0.40;99.90;;;;;;5007437;28;20471;-62
2024/01/06 03:00:37;;;;;;;7.57;6.37;;;0.40;99.90;;;;;;5005708;28;21038;-63
2024/01/06 03:03:06;;;;;;;6.93;6.23;;;0.40;99.90;;;;;;5002024;28;20472;-63
2024/01/06 03:05:34;;;;;;;7.60;6.67;;;0.40;99.90;;;;;;5002137;28;20512;-62
2024/01/06 03:08:06;;;;;;;7.40;6.60;;;0.40;99.90;;;;;;5010690;28;20496;-62
2024/01/06 03:10:36;;;;;;;8.00;6.63;;;0.40;99.90;;;;;;5009697;28;21029;-63
2024/01/06 03:13:04;;;;;;;7.90;6.53;;;0.40;99.90;;;;;;5005188;28;20940;-64
2024/01/06 03:15:33;;;;;;;8.13;6.70;;;0.40;99.90;;;;;;5004427;28;20499;-63
2024/01/06 03:18:01;;;;;;;10.37;7.60;;;0.40;99.90;;;;;;5005575;28;20467;-63
2024/01/06 03:20:29;;;;;;;9.30;7.50;;;0.40;99.90;;;;;;5012225;28;20480;-63
2024/01/06 03:22:57;;;;;;;8.13;6.83;;;0.40;99.90;;;;;;5011051;28;20496;-64
2024/01/06 03:25:25;;;;;;;7.90;7.10;;;0.40;99.90;;;;;;5000136;28;21214;-63
2024/01/06 03:27:53;;;;;;;7.20;6.50;;;0.40;99.90;;;;;;4994203;28;20487;-63
2024/01/06 03:30:21;;;;;;;8.97;7.47;;;0.40;99.90;;;;;;5004481;28;20586;-63
2024/01/06 03:32:51;;;;;;;8.43;7.53;;;0.40;99.90;;;;;;5005231;28;20496;-63
2024/01/06 03:35:19;;;;;;;8.63;7.43;;;0.40;99.90;;;;;;5001530;28;20527;-64
2024/01/06 03:37:47;;;;;;;10.53;7.73;;;0.40;99.90;;;;;;5000992;28;20468;-63
2024/01/06 03:40:15;;;;;;;8.50;6.83;;;0.40;99.90;;;;;;5002325;28;20505;-63
2024/01/06 03:42:43;;;;;;;9.57;7.00;;;0.40;99.90;;;;;;5009911;28;20500;-63
2024/01/06 03:45:11;;;;;;;8.00;6.97;;;0.40;99.90;;;;;;5011408;28;20468;-63
2024/01/06 03:47:39;;;;;;;8.67;6.43;;;0.40;99.90;;;;;;5002105;28;20468;-63
2024/01/06 03:50:09;;;;;;;8.57;6.60;;;0.40;99.90;;;;;;5006027;28;20515;-63
2024/01/06 03:52:37;;;;;;;7.70;6.50;;;0.40;99.90;;;;;;5004874;28;20495;-63
2024/01/06 03:55:06;;;;;;;7.00;6.30;;;0.40;99.90;;;;;;4996361;28;20494;-63
2024/01/06 03:57:34;;;;;;;9.67;7.33;;;0.40;99.90;;;;;;4997538;28;20555;-62
2024/01/06 04:00:03;;;;;;;8.43;7.10;;;0.40;99.90;;;;;;4994611;28;20472;-63
2024/01/06 04:02:31;;;;;;;7.47;6.23;;;0.40;99.90;;;;;;5005886;28;20919;-62
2024/01/06 04:04:59;;;;;;;7.93;7.07;;;0.40;99.90;;;;;;5000527;28;20477;-64
2024/01/06 04:07:28;;;;;;;7.00;6.30;;;0.30;99.90;;;;;;4993488;28;21132;-63
2024/01/06 04:09:56;;;;;;;8.50;6.87;;;0.30;99.90;;;;;;4998975;28;20554;-63
2024/01/06 04:12:25;;;;;;;7.50;6.73;;;0.30;99.90;;;;;;5003124;28;20496;-62
2024/01/06 04:14:53;;;;;;;8.40;6.53;;;0.30;99.90;;;;;;5002269;28;20468;-63
2024/01/06 04:17:21;;;;;;;8.00;6.37;;;0.30;99.90;;;;;;5006011;28;20531;-63
2024/01/06 04:19:50;;;;;;;7.30;6.20;;;0.30;99.90;;;;;;5003421;28;20527;-63
2024/01/06 04:22:18;;;;;;;7.40;6.60;;;0.40;99.90;;;;;;5004071;28;20953;-63
2024/01/06 04:24:47;;;;;;;7.77;6.97;;;0.40;99.90;;;;;;5008915;28;20501;-63
2024/01/06 04:27:15;;;;;;;7.70;6.37;;;0.40;99.90;;;;;;5019944;28;20515;-63
2024/01/06 04:29:43;;;;;;;8.53;7.20;;;0.40;99.90;;;;;;5004592;28;20539;-63
2024/01/06 04:32:11;;;;;;;7.97;6.43;;;0.40;99.90;;;;;;4999233;28;20562;-64
2024/01/06 04:34:39;;;;;;;7.20;6.20;;;0.40;99.90;;;;;;5008963;28;20472;-64
2024/01/06 04:37:07;;;;;;;8.60;6.57;;;0.40;99.90;;;;;;5002499;28;20476;-63
2024/01/06 04:39:35;;;;;;;7.50;5.77;;;0.40;99.90;;;;;;5003480;28;20468;-64
2024/01/06 04:42:06;;;;;;;8.80;7.00;;;0.40;99.90;;;;;;5001694;28;20503;-63
2024/01/06 04:44:34;;;;;;;7.43;6.60;;;0.40;99.90;;;;;;4996012;28;20477;-64
2024/01/06 04:47:02;;;;;;;7.80;6.67;;;0.40;99.90;;;;;;5006650;28;20512;-63
2024/01/06 04:49:30;;;;;;;7.63;6.40;;;0.40;99.90;;;;;;4997384;28;21073;-63
2024/01/06 04:51:59;;;;;;;8.43;6.80;;;0.40;99.90;;;;;;5002552;28;21019;-63
2024/01/06 04:54:27;;;;;;;7.33;6.63;;;0.40;99.90;;;;;;5003535;28;20465;-63
2024/01/06 04:56:55;;;;;;;9.83;7.63;;;0.40;99.90;;;;;;4999849;28;20472;-63
2024/01/06 04:59:25;;;;;;;9.70;7.13;;;0.40;99.90;;;;;;5001471;28;20464;-62
2024/01/06 05:01:54;;;;;;;9.33;7.00;;;0.40;99.90;;;;;;5004262;28;20547;-64
2024/01/06 05:04:22;;;;;;;8.07;6.43;;;0.40;99.90;;;;;;5005189;28;20563;-63
2024/01/06 05:06:51;;;;;;;10.43;7.77;;;0.40;99.90;;;;;;5000031;28;20594;-63
2024/01/06 05:09:20;;;;;;;8.40;6.83;;;0.40;99.90;;;;;;5000775;28;20492;-61
2024/01/06 05:11:48;;;;;;;8.07;6.60;;;0.40;99.90;;;;;;4999251;28;20508;-63
2024/01/06 05:14:16;;;;;;;8.67;7.00;;;0.40;99.90;;;;;;5003733;28;21068;-63
2024/01/06 05:16:45;;;;;;;8.17;7.00;;;0.40;99.90;;;;;;5001973;28;20469;-62
2024/01/06 05:19:19;;;;;;;10.70;7.03;;;0.40;99.90;;;;;;5006274;28;20555;-63
2024/01/06 05:21:48;;;;;;;9.13;7.37;;;0.30;99.90;;;;;;4997467;28;20496;-63
2024/01/06 05:24:16;;;;;;;8.40;7.17;;;0.30;99.90;;;;;;5004361;28;20491;-61
2024/01/06 05:26:44;;;;;;;8.50;6.83;;;0.30;99.90;;;;;;5007741;28;20477;-63
2024/01/06 05:29:12;;;;;;;7.20;6.43;;;0.30;99.90;;;;;;5010991;28;20523;-63
2024/01/06 05:31:40;;;;;;;8.53;7.47;;;0.30;99.90;;;;;;5006402;28;21072;-62
2024/01/06 05:34:10;;;;;;;10.87;7.97;;;0.30;99.90;;;;;;5017588;28;20519;-63
2024/01/06 05:36:38;;;;;;;11.80;8.00;;;0.30;99.90;;;;;;4999575;28;20926;-63
2024/01/06 05:39:07;;;;;;;9.50;7.60;;;0.30;99.90;;;;;;5001278;28;20504;-63
2024/01/06 05:41:38;;;;;;;10.10;7.60;;;0.30;99.90;;;;;;4997402;28;20493;-63
2024/01/06 05:44:07;;;;;;;8.70;7.80;;;0.30;99.90;;;;;;5004553;28;20475;-63
2024/01/06 05:46:35;;;;;;;8.03;7.20;;;0.30;99.90;;;;;;5004969;28;20851;-63
2024/01/06 05:49:04;;;;;;;8.77;7.10;;;0.30;99.90;;;;;;5004688;28;20935;-63
2024/01/06 05:51:33;;;;;;;10.67;8.60;;;0.30;99.90;;;;;;4999379;28;20484;-63
2024/01/06 05:54:02;;;;;;;10.27;8.00;;;0.30;99.90;;;;;;5004729;28;20476;-63
2024/01/06 05:56:30;;;;;;;8.50;7.43;;;0.30;99.90;;;;;;5006392;28;20475;-62
2024/01/06 05:58:58;;;;;;;9.70;8.10;;;0.30;99.90;;;;;;5006404;28;20562;-63
2024/01/06 06:01:26;;;;;;;9.70;7.70;;;0.30;99.90;;;;;;5000590;28;20619;-63
2024/01/06 06:03:54;;;;;;;9.90;8.17;;;0.30;99.90;;;;;;4998504;28;20464;-63
2024/01/06 06:06:22;;;;;;;9.20;8.20;;;0.30;99.90;;;;;;4997010;28;20475;-63
2024/01/06 06:08:52;;;;;;;8.90;7.80;;;0.30;99.90;;;;;;4994089;28;20468;-63
2024/01/06 06:11:20;;;;;;;9.73;7.90;;;0.30;99.90;;;;;;5001519;28;20588;-64
2024/01/06 06:13:48;;;;;;;10.80;8.07;;;0.30;99.90;;;;;;5004269;28;20523;-64
2024/01/06 06:16:16;;;;;;;10.00;8.20;;;0.30;99.90;;;;;;5005962;28;20472;-63
2024/01/06 06:18:44;;;;;;;10.53;8.30;;;0.30;99.90;;;;;;5008646;28;20551;-64
2024/01/06 06:21:12;;;;;;;10.27;8.80;;;0.30;99.90;;;;;;5000816;28;20540;-63
2024/01/06 06:23:40;;;;;;;11.93;8.97;;;0.30;99.90;;;;;;5006498;28;20555;-64
2024/01/06 06:26:11;;;;;;;10.30;8.30;;;0.30;99.90;;;;;;5008425;28;20571;-63
2024/01/06 06:28:39;;;;;;;12.73;8.13;;;0.30;99.90;;;;;;5005430;28;20958;-64
2024/01/06 06:31:08;;;;;;;10.53;8.17;;;0.30;99.90;;;;;;5010401;28;20542;-64
2024/01/06 06:33:36;;;;;;;10.83;8.03;;;0.30;99.90;;;;;;5008168;28;20559;-63
2024/01/06 06:36:05;;;;;;;10.63;7.77;;;0.30;99.90;;;;;;5002385;28;21172;-64
2024/01/06 06:38:33;;;;;;;12.10;8.33;;;0.30;99.90;;;;;;5003021;28;20925;-63
2024/01/06 06:41:01;;;;;;;10.77;8.67;;;0.30;99.90;;;;;;5013896;28;20488;-63
2024/01/06 06:43:30;;;;;;;9.50;8.40;;;0.30;99.90;;;;;;5020218;28;20520;-64
2024/01/06 06:45:58;;;;;;;9.37;7.63;;;0.30;99.90;;;;;;5006472;28;20476;-63
2024/01/06 06:48:26;;;;;;;8.53;7.53;;;0.30;99.90;;;;;;5006374;28;20993;-63
2024/01/06 06:50:55;;;;;;;9.80;8.40;;;0.30;99.90;;;;;;4999402;28;20483;-64
2024/01/06 06:53:22;;;;;;;10.20;8.10;;;0.30;99.90;;;;;;5006607;28;20472;-64
2024/01/06 06:55:50;;;;;;;9.63;8.13;;;0.30;99.90;;;;;;5001052;28;20496;-64
2024/01/06 06:58:18;;;;;;;9.93;8.67;;;0.30;99.90;;;;;;5002627;28;20487;-64
2024/01/06 07:00:48;;;;;;;9.13;8.17;;;0.30;99.90;;;;;;5000067;28;20985;-62
2024/01/06 07:03:16;;;;;;;12.20;8.93;;;0.20;99.90;;;;;;4999212;28;20460;-64
2024/01/06 07:05:44;;;;;;;10.20;8.27;;;0.20;99.90;;;;;;5002873;28;20942;-64
2024/01/06 07:08:14;;;;;;;10.03;8.47;;;0.20;99.90;;;;;;5005266;28;20480;-64
2024/01/06 07:10:42;;;;;;;12.50;8.73;;;0.20;99.90;;;;;;5000026;28;21064;-64
2024/01/06 07:13:10;;;;;;;10.53;9.37;;;0.20;99.90;;;;;;5003380;28;20559;-64
2024/01/06 07:15:38;;;;;;;12.00;8.57;;;0.20;99.90;;;;;;5005284;28;20563;-64
2024/01/06 07:18:08;;;;;;;11.67;8.80;;;0.20;99.90;;;;;;5006727;28;20476;-65
2024/01/06 07:20:36;;;;;;;9.50;7.50;;;0.20;99.90;;;;;;5006431;28;20495;-64
2024/01/06 07:23:04;;;;;;;11.47;8.50;;;0.20;99.90;;;;;;5002660;28;20931;-64
2024/01/06 07:25:32;;;;;;;10.23;8.23;;;0.20;99.90;;;;;;5007055;28;20566;-63
2024/01/06 07:28:00;;;;;;;11.60;8.73;;;0.20;99.90;;;;;;5006311;28;20557;-64
2024/01/06 07:30:29;;;;;;;11.17;8.60;;;0.20;99.90;;;;;;5009025;28;20906;-64
2024/01/06 07:32:58;;;;;;;9.30;7.50;;;0.20;99.90;;;;;;5002230;28;20503;-64
2024/01/06 07:35:28;;;;;;;9.10;8.00;;;0.20;99.90;;;;;;5003592;28;20476;-64
2024/01/06 07:37:56;;;;;;;12.30;8.63;;;0.20;99.90;;;;;;5000595;28;20473;-64
2024/01/06 07:40:25;;;;;;;12.60;8.20;;;0.20;99.90;;;;;;5003481;28;21080;-64
2024/01/06 07:42:53;;;;;;;10.70;7.93;;;0.20;99.90;;;;;;5014627;28;20566;-63
2024/01/06 07:45:21;;;;;;;11.47;8.20;;;0.20;99.90;;;;;;5015358;28;20468;-63
2024/01/06 07:47:49;;;;;;;10.80;8.20;;;0.20;99.90;;;;;;5001527;28;20472;-64
2024/01/06 07:50:18;;;;;;;9.17;7.90;;;0.20;99.90;;;;;;5008484;28;20491;-63
2024/01/06 07:52:47;;;;;;;11.23;7.97;;;0.30;99.90;;;;;;5009839;28;20942;-64
2024/01/06 07:55:15;;;;;;;9.63;7.80;;;0.30;99.90;;;;;;5005146;28;20530;-64
2024/01/06 07:57:44;;;;;;;9.03;8.00;;;0.30;99.90;;;;;;5002315;28;20473;-64
2024/01/06 08:00:14;;;;;;;8.77;7.50;;;0.30;99.90;;;;;;5009555;28;20467;-63
2024/01/06 08:02:42;;;;;;;10.50;7.83;;;0.30;99.90;;;;;;5004234;28;20495;-64
2024/01/06 08:05:11;;;;;;;10.40;8.03;;;0.30;99.90;;;;;;4999667;28;20842;-64
2024/01/06 08:07:39;;;;;;;11.13;7.87;;;0.30;99.90;;;;;;5004951;28;20477;-64
2024/01/06 08:10:09;;;;;;;9.87;8.27;;;0.30;99.90;;;;;;5004859;28;20515;-64
2024/01/06 08:12:37;;;;;;;10.67;7.87;;;0.30;99.90;;;;;;5006922;28;20579;-64
2024/01/06 08:15:08;;;;;;;10.83;7.47;;;0.30;99.90;;;;;;5005159;28;20544;-63
2024/01/06 08:17:37;;;;;;;9.33;7.47;;;0.30;99.90;;;;;;5004063;28;20508;-64
2024/01/06 08:20:06;;;;;;;8.50;7.17;;;0.30;99.90;;;;;;5006553;28;20926;-64
2024/01/06 08:22:34;;;;;;;9.80;7.60;;;0.30;99.90;;;;;;5007349;28;20516;-64
2024/01/06 08:25:02;;;;;;;9.73;8.10;;;0.30;99.90;;;;;;4993858;28;20550;-62
2024/01/06 08:27:32;;;;;;;10.10;8.20;;;0.30;99.90;;;;;;5008094;28;20607;-65
2024/01/06 08:30:00;;;;;;;11.10;7.80;;;0.30;99.90;;;;;;5007618;28;20472;-66
2024/01/06 08:32:28;;;;;;;9.93;7.33;;;0.30;99.90;;;;;;5006802;28;20503;-65
2024/01/06 08:34:56;;;;;;;10.00;7.77;;;0.30;99.90;;;;;;5003535;28;20961;-65
2024/01/06 08:37:24;;;;;;;9.60;7.70;;;0.30;99.90;;;;;;5006690;28;20476;-65
2024/01/06 08:39:52;;;;;;;9.90;7.10;;;0.30;99.90;;;;;;5008855;28;20476;-65
2024/01/06 08:42:21;;;;;;;10.73;7.60;;;0.30;99.90;;;;;;5007052;28;20542;-65
2024/01/06 08:44:50;;;;;;;8.77;7.60;;;0.30;99.90;;;;;;5010244;28;20860;-65
2024/01/06 08:47:18;;;;;;;9.27;7.10;;;0.40;99.90;;;;;;5007527;28;20475;-65
2024/01/06 08:49:46;;;;;;;8.33;7.13;;;0.30;99.90;;;;;;5004577;28;20515;-65
2024/01/06 08:52:14;;;;;;;10.20;7.70;;;0.30;99.90;;;;;;5006102;28;20488;-65
2024/01/06 08:54:42;;;;;;;10.20;7.60;;;0.30;99.90;;;;;;5009335;28;20469;-65
2024/01/06 08:57:10;;;;;;;9.33;8.00;;;0.30;99.90;;;;;;5004509;28;20555;-65
2024/01/06 08:59:39;;;;;;;9.93;7.60;;;0.30;99.90;;;;;;4996372;28;20462;-65
2024/01/06 09:02:09;;;;;;;9.53;7.80;;;0.30;99.90;;;;;;5002888;28;20579;-65
2024/01/06 09:04:37;;;;;;;12.60;8.57;;;0.30;99.90;;;;;;4997633;28;20527;-65
2024/01/06 09:07:05;;;;;;;9.03;7.30;;;0.30;99.90;;;;;;5006141;28;20480;-65
2024/01/06 09:09:33;;;;;;;9.30;7.73;;;0.30;99.90;;;;;;5000864;28;20984;-65
2024/01/06 09:12:01;;;;;;;9.60;7.30;;;0.40;99.90;;;;;;5001411;28;20497;-65
2024/01/06 09:14:30;;;;;;;8.97;7.40;;;0.30;99.90;;;;;;4994590;28;20464;-65
2024/01/06 09:16:58;;;;;;;9.17;6.93;;;0.30;99.90;;;;;;5006287;28;20463;-65
2024/01/06 09:19:28;;;;;;;11.63;8.00;;;0.40;99.90;;;;;;4998915;28;20583;-66
2024/01/06 09:21:56;;;;;;;10.70;8.33;;;0.40;99.90;;;;;;5000023;28;20478;-66
2024/01/06 09:24:24;;;;;;;8.93;7.20;;;0.40;99.90;;;;;;5002130;28;20476;-65
2024/01/06 09:26:52;;;;;;;10.03;7.80;;;0.50;99.90;;;;;;5001259;28;20471;-65
2024/01/06 09:29:21;;;;;;;8.63;7.37;;;0.50;99.90;;;;;;4986254;28;21739;-65
2024/01/06 09:31:49;;;;;;;8.53;7.50;;;0.50;99.90;;;;;;4988571;28;20492;-66
2024/01/06 09:34:17;;;;;;;8.70;7.57;;;0.50;99.90;;;;;;4997421;28;20564;-65
2024/01/06 09:36:47;;;;;;;13.60;8.27;;;0.50;99.90;;;;;;4988040;28;20484;-66
2024/01/06 09:39:15;;;;;;;10.20;7.70;;;0.50;99.90;;;;;;4995174;28;20507;-66
2024/01/06 09:41:43;;;;;;;8.73;7.27;;;0.50;99.90;;;;;;5000367;28;20953;-65
2024/01/06 09:44:11;;;;;;;9.37;7.40;;;0.50;99.90;;;;;;5000443;28;20517;-65
2024/01/06 09:46:43;;;;;;;10.40;7.90;;;0.50;99.90;;;;;;5000307;28;20481;-65
2024/01/06 09:49:13;;;;;;;9.60;7.33;;;0.50;99.90;;;;;;4999154;28;20460;-65
2024/01/06 09:51:42;;;;;;;8.67;7.07;;;0.50;99.90;;;;;;5000401;28;20520;-65
2024/01/06 09:54:14;;;;;;;9.03;8.10;;;0.50;99.90;;;;;;5013024;28;20901;-65
2024/01/06 09:56:47;;;;;;;10.93;8.20;;;0.50;99.90;;;;;;5018365;28;21038;-65
2024/01/06 09:59:15;;;;;;;9.70;8.10;;;0.50;99.90;;;;;;4999392;28;20546;-64
2024/01/06 10:01:45;;;;;;;9.43;8.13;;;0.50;99.90;;;;;;5007434;28;21398;-65
2024/01/06 10:04:14;;;;;;;10.57;8.57;;;0.50;99.90;;;;;;5005564;28;20574;-64
2024/01/06 10:06:47;;;;;;;10.33;8.27;;;0.50;99.90;;;;;;5006885;28;20992;-65
2024/01/06 10:09:16;;;;;;;10.70;8.20;;;0.50;99.90;;;;;;5004996;28;20503;-64
2024/01/06 10:11:44;;;;;;;10.27;8.33;;;0.50;99.90;;;;;;5015189;28;20486;-64
2024/01/06 10:14:13;;;;;;;10.70;8.13;;;0.50;99.90;;;;;;5014903;28;20476;-64
2024/01/06 10:16:41;;;;;;;9.37;8.30;;;0.50;99.90;;;;;;5007500;28;20553;-64
2024/01/06 10:19:09;;;;;;;9.00;7.90;;;0.50;99.90;;;;;;5003496;28;20927;-64
2024/01/06 10:21:37;;;;;;;9.70;7.60;;;0.60;99.90;;;;;;5006659;28;20498;-64
2024/01/06 10:24:08;;;;;;;11.23;8.10;;;0.60;99.90;;;;;;5007056;28;20472;-64
2024/01/06 10:26:38;;;;;;;12.67;8.77;;;0.50;99.90;;;;;;5010090;28;20529;-64
2024/01/06 10:29:06;;;;;;;10.33;7.73;;;0.50;99.90;;;;;;5007895;28;20467;-64
2024/01/06 10:31:34;;;;;;;9.57;7.60;;;0.50;99.90;;;;;;5000109;28;20978;-64
2024/01/06 10:34:03;;;;;;;9.57;8.20;;;0.50;99.90;;;;;;5007106;28;21024;-64
2024/01/06 10:36:32;;;;;;;9.87;7.23;;;0.50;99.90;;;;;;5011034;28;20579;-64
2024/01/06 10:39:01;;;;;;;9.50;6.80;;;0.50;99.90;;;;;;5002847;28;20560;-64
2024/01/06 10:41:31;;;;;;;7.70;6.67;;;0.50;99.90;;;;;;4997366;28;20506;-65
2024/01/06 10:44:02;;;;;;;11.07;7.80;;;0.60;99.90;;;;;;4999914;28;20503;-66
2024/01/06 10:46:32;;;;;;;9.47;7.73;;;0.60;99.90;;;;;;4976935;28;21013;-68
2024/01/06 10:49:01;;;;;;;9.97;7.50;;;0.60;99.90;;;;;;4985891;28;20562;-65
2024/01/06 10:51:30;;;;;;;10.87;7.90;;;0.60;99.90;;;;;;4991793;28;20497;-66
2024/01/06 10:54:01;;;;;;;9.77;7.77;;;0.60;99.90;;;;;;4992307;28;20959;-66
2024/01/06 10:56:30;;;;;;;9.27;6.43;;;0.60;99.90;;;;;;4991008;28;20485;-66
2024/01/06 10:59:03;;;;;;;8.90;7.63;;;0.60;99.90;;;;;;4993903;28;21018;-66
2024/01/06 11:01:33;;;;;;;9.10;7.23;;;0.60;99.90;;;;;;4994340;28;21064;-66
2024/01/06 11:04:03;;;;;;;9.50;7.53;;;0.60;99.90;;;;;;4980149;28;20899;-66
2024/01/06 11:06:33;;;;;;;9.27;7.20;;;0.60;99.90;;;;;;4981793;28;20477;-67
2024/01/06 11:09:10;;;;;;;9.97;6.30;;;0.60;99.90;;;;;;4979033;28;20510;-66
2024/01/06 11:11:39;;;;;;;10.73;7.47;;;0.60;99.90;;;;;;4989205;28;20507;-67
2024/01/06 11:14:24;;;;;;;13.27;7.53;;;0.60;99.90;;;;;;4993135;28;20611;-65
2024/01/06 11:16:52;;;;;;;9.20;6.70;;;0.60;99.90;;;;;;4987478;28;20483;-65
2024/01/06 11:19:54;;;;;;;8.97;6.57;;;0.60;99.90;;;;;;4991316;28;20949;-65
2024/01/06 11:22:26;;;;;;;7.40;6.43;;;0.60;99.90;;;;;;4938027;28;20487;-65
2024/01/06 11:24:55;;;;;;;8.77;6.37;;;0.60;99.90;;;;;;4980623;28;20852;-66
2024/01/06 11:27:28;;;;;;;8.33;6.40;;;0.60;99.90;;;;;;4997621;28;20466;-65
2024/01/06 11:29:59;;;;;;;9.67;6.50;;;0.60;99.90;;;;;;4999115;28;20910;-65
2024/01/06 11:32:33;;;;;;;7.83;6.37;;;0.60;99.90;;;;;;5002731;28;20500;-65
2024/01/06 11:35:08;;;;;;;7.67;5.87;;;0.60;99.90;;;;;;4998271;28;20478;-65
2024/01/06 11:37:38;;;;;;;9.50;6.73;;;0.60;99.90;;;;;;5001881;28;20474;-65
2024/01/06 11:40:13;;;;;;;7.70;5.93;;;0.60;99.90;;;;;;4997162;28;21025;-66
2024/01/06 11:42:42;;;;;;;8.10;5.93;;;0.70;99.90;;;;;;4995322;28;20557;-66
2024/01/06 11:45:12;;;;;;;7.37;5.53;;;0.70;99.90;;;;;;5001280;28;21300;-65
2024/01/06 11:47:41;;;;;;;7.50;6.23;;;0.60;99.90;;;;;;4998958;28;21155;-66
2024/01/06 11:50:10;;;;;;;7.03;6.10;;;0.60;99.90;;;;;;4991772;28;20488;-66
2024/01/06 11:52:38;;;;;;;8.17;5.40;;;0.60;99.90;;;;;;4995291;28;20527;-65
2024/01/06 11:55:08;;;;;;;7.37;6.00;;;0.60;99.90;;;;;;5000906;28;20546;-66
2024/01/06 11:57:36;;;;;;;8.17;5.40;;;0.60;99.90;;;;;;5003213;28;20476;-66
2024/01/06 12:00:05;;;;;;;6.90;5.50;;;0.60;99.90;;;;;;4999517;28;20849;-65
2024/01/06 12:02:34;;;;;;;7.33;5.70;;;0.60;99.90;;;;;;4995868;28;20943;-66
2024/01/06 12:05:02;;;;;;;6.47;5.33;;;0.60;99.90;;;;;;5002703;28;20558;-66
2024/01/06 12:07:31;;;;;;;7.67;5.80;;;0.50;99.90;;;;;;5006356;28;21135;-66
2024/01/06 12:10:04;;;;;;;8.47;5.97;;;0.50;99.90;;;;;;5004116;28;21185;-66
2024/01/06 12:12:33;;;;;;;6.63;5.57;;;0.50;99.90;;;;;;4993679;28;20512;-66
2024/01/06 12:15:01;;;;;;;7.40;5.80;;;0.50;99.90;;;;;;4995469;28;20476;-66
2024/01/06 12:17:31;;;;;;;6.37;4.90;;;0.50;99.90;;;;;;5003522;28;20937;-66
2024/01/06 12:20:00;;;;;;;5.47;4.93;;;0.50;99.90;;;;;;5000632;28;20488;-66
2024/01/06 12:22:28;;;;;;;6.33;4.80;;;0.50;99.90;;;;;;5002900;28;20492;-65
2024/01/06 12:24:56;;;;;;;5.53;4.93;;;0.50;99.90;;;;;;5001221;28;20468;-66
2024/01/06 12:27:26;;;;;;;6.50;5.23;;;0.50;99.90;;;;;;4997365;28;20550;-66
2024/01/06 12:29:54;;;;;;;5.53;4.93;;;0.50;99.90;;;;;;4995510;28;20495;-65
2024/01/06 12:32:22;;;;;;;5.03;4.43;;;0.50;99.90;;;;;;4998847;28;20508;-66
2024/01/06 12:34:50;;;;;;;7.10;4.93;;;0.50;99.90;;;;;;5005553;28;20460;-66
2024/01/06 12:37:20;;;;;;;4.93;4.43;;;0.40;99.90;;;;;;4999230;28;24090;-65
2024/01/06 12:39:48;;;;;;;4.57;4.17;;;0.40;99.90;;;;;;5003230;28;20468;-65
2024/01/06 12:42:17;;;;;;;5.60;4.50;;;0.40;99.90;;;;;;5000033;28;20501;-65
2024/01/06 12:44:45;;;;;;;5.93;4.60;;;0.40;99.90;;;;;;4994876;28;20468;-66
2024/01/06 12:47:13;;;;;;;5.87;4.73;;;0.50;99.90;;;;;;4995531;28;21220;-66
2024/01/06 12:49:41;;;;;;;5.27;4.47;;;0.50;99.90;;;;;;4996876;28;20472;-66
2024/01/06 12:52:09;;;;;;;5.13;4.30;;;0.40;99.90;;;;;;4992421;28;20558;-65
2024/01/06 12:54:40;;;;;;;5.10;4.50;;;0.50;99.90;;;;;;4995829;28;20503;-65
2024/01/06 12:57:12;;;;;;;6.87;4.20;;;0.50;99.90;;;;;;4998875;28;20464;-66
2024/01/06 12:59:40;;;;;;;5.20;4.07;;;0.50;99.90;;;;;;4997093;28;20479;-66
2024/01/06 13:02:08;;;;;;;5.43;4.17;;;0.50;99.90;;;;;;4998302;28;20500;-66
2024/01/06 13:04:36;;;;;;;6.07;4.80;;;0.40;99.90;;;;;;4996755;28;20563;-66